Search for airport 
image banner adimage banner adimage banner ad
image banner ad

48P - Rocky Hill

Located in Cresco, United States

ICAO - 48P, IATA -

Data provided by Airmate  

General information

Coordinates: N41°8'55" W75°16'31"
Elevation is 1240 feet MSL.
 
View others Airports in Pennsylvania

Operational data

Special qualification required
Current time UTC:
Current local time:
Weather at : KMPO - Pocono Mountains Muni ( 9 km )
METAR: KMPO 092253Z AUTO 10008KT 10SM -RA BKN003 OVC050 04/03 A2988 RMK AO2 SLP133 P0004 T00390028
View NOTAMs / SUP AIP / TFR affecting this airport [VIEW]
Communications frequencies: [VIEW]

Runways:

RWY identifierQFULength (ft)Width (ft)SurfaceLDA (ft)
0973°1000100GRASS
27253°1000100GRASS

Airport contact information

Address: Cresco United States

Satellite view of 48P